x

Halifax Harbour (44258) Wave Buoy

12:00pm - Tue 30th Aug 2016 All times are EDT. -4 hours from GMT.

  • Sig Wave height 2.3ft
  • Peak Period 11s
  • Wind
    11mph, 13mph gusts
  • Sea Temp 65°f
  • Air Temp 65°f
  • Sea Pressure 1016.8mb
  • Halifax Harbour
  • Halifax Harbour

More Historic Weather Station data

Upgrade to MSW Pro to gain access to the past 30 days of data for over 8000 Wavebouys and Weather Stations around the globe.

Join Pro

Comparision Forecast

View Surf forecast
   
Tue 08/30 12:00pm 2.5ft 11s 11 13 mph 1016.8mb 65f 65f
11:00am 2ft 10s 9
mph
1017.3mb 65f 65f
10:00am 2.5ft 11s 7 9 mph 1017.3mb 65f 65f
9:00am 2.5ft 11s 9 11 mph 1017.2mb 64f 64f
8:00am 2.5ft 12s 11 13 mph 1016.6mb 64f 62f
7:00am 2.5ft 12s 11 13 mph 1016.4mb 64f 61f
6:00am 3ft 12s 13 16 mph 1015.9mb 64f 61f
5:00am 2.5ft 12s 13 16 mph 1015.5mb 64f 61f
4:00am 2.5ft 12s 11 13 mph 1015mb 64f 61f
3:00am 2.5ft 11s 13 16 mph 1014.8mb 64f 62f
2:00am 2.5ft 11s 13 18 mph 1014.2mb 63f 63f
1:00am 3ft 11s 13 18 mph 1014.5mb 63f 62f
12:00am 2.5ft 12s 13 16 mph 1014.2mb 62f 63f
Mon 08/29 11:00pm 3ft 12s 18 20 mph 1013.7mb 63f 64f
10:00pm 4ft 6s 22 27 mph 1012.8mb 64f 65f
9:00pm 4ft 6s 25 34 mph 1011.5mb 64f 67f
8:00pm 4.5ft 12s 16 18 mph 1010.8mb 65f 67f
7:00pm 4.5ft 12s 18 22 mph 1010.1mb 65f 65f
6:00pm 4.5ft 6s 22 25 mph 1009.4mb 65f 65f
5:00pm 5ft 12s 22 27 mph 1009.9mb 65f 66f
4:00pm 5ft 6s 25 29 mph 1010.2mb 65f 66f
3:00pm 5ft 12s 27 29 mph 1010.5mb 65f 66f
2:00pm 4.5ft 5s 22 29 mph 1011.5mb 65f 66f
1:00pm 4ft 12s 25 29 mph 1011.9mb 65f 66f
12:00pm 3.5ft 12s 25 31 mph 1012.8mb 65f 66f
11:00am 3.5ft 13s 22 27 mph 1014.1mb 65f 66f
10:00am 3ft 12s 18 22 mph 1015.5mb 65f 66f
9:00am 2.5ft 13s 18 22 mph 1016mb 65f 66f
8:00am 2.5ft 13s 16 18 mph 1016.9mb 65f 65f
7:00am 3ft 13s 16 18 mph 1017.8mb 65f 65f
6:00am 2.5ft 13s 16 18 mph 1018.4mb 65f 65f
5:00am 2.5ft 13s 16 18 mph 1019mb 65f 65f
4:00am 2.5ft 13s 16 20 mph 1019.3mb 65f 65f
3:00am 1.6ft 13s 13 18 mph 1020mb 65f 66f
2:00am 2ft 13s 11 13 mph 1020.8mb 65f 66f
1:00am 1.6ft 13s 13 16 mph 1021.4mb 65f 66f
12:00am 1.6ft 13s 13 16 mph 1022.1mb 65f 66f
Sun 08/28 11:00pm 1.6ft 13s 13 16 mph 1022.9mb 65f 66f
10:00pm 1.6ft 13s 11 13 mph 1023.3mb 65f 66f
9:00pm 1.6ft 13s 11 13 mph 1023.7mb 65f 66f
8:00pm 1.6ft 13s 9 11 mph 1024mb 65f 65f
7:00pm 2ft 13s 9
mph
1024.1mb 65f 65f
6:00pm 2ft 14s 9 11 mph 1024.5mb 65f 66f
5:00pm 1.6ft 14s 11 13 mph 1024.7mb 66f 66f
4:00pm 2ft 14s 9
mph
1025mb 66f 65f
3:00pm 1.6ft 14s 7 9 mph 1025.4mb 67f 65f
2:00pm 1.6ft 14s 7 9 mph 1025.7mb 67f 64f
1:00pm 1.6ft 14s 4
mph
1026.4mb 67f 64f
12:00pm 1.6ft 14s 7 9 mph 1026.4mb 66f 64f
11:00am 1.3ft 15s 7 9 mph 1026.8mb 66f 64f
10:00am 1.3ft 8s 9
mph
1027mb 65f 64f
9:00am 1.6ft 4s 9 13 mph 1026.9mb 65f 62f
8:00am 1.6ft 9s 11 13 mph 1026.8mb 65f 61f
7:00am 1.3ft 7s 11 13 mph 1026.2mb 65f 60f
6:00am 1.3ft 15s 11 13 mph 1025.8mb 65f 60f
5:00am 1.3ft 9s 11 13 mph 1025.4mb 65f 61f
4:00am 1ft 8s 11 13 mph 1024.7mb 66f 61f
3:00am 1.3ft 10s 9 11 mph 1024.7mb 66f 61f
2:00am 1.3ft 9s 9 11 mph 1024.6mb 65f 62f
1:00am 1.3ft 8s 9 13 mph 1024.5mb 65f 63f
12:00am 1.3ft 9s 16 18 mph 1024mb 65f 64f
Sat 08/27 11:00pm 1.3ft 6s 13 18 mph 1023.6mb 66f 65f
10:00pm 1.3ft 6s 9 13 mph 1023.7mb 66f 65f
9:00pm 1.6ft 7s 11 13 mph 1023.1mb 66f 66f
8:00pm 1.6ft 7s 11 13 mph 1022.2mb 66f 67f
7:00pm 2ft 7s 13 18 mph 1021.3mb 66f 68f
6:00pm 2.5ft 7s 16 18 mph 1020.4mb 67f 69f
5:00pm 2ft 7s 13 18 mph 1019.5mb 67f 70f
4:00pm 2ft 7s 18 22 mph 1018.7mb 67f 71f
3:00pm 2ft 8s 16 20 mph 1018.1mb 68f 71f
2:00pm 1.6ft 5s 7 11 mph 1018mb 68f 71f
1:00pm 1.6ft 5s 4 7 mph 1017.7mb 68f 72f
12:00pm 1.6ft 5s 9 11 mph 1017.4mb 67f 70f
11:00am 1.6ft 5s 2 4 mph 1017.4mb 67f 68f
10:00am 2ft 5s 9 11 mph 1016.8mb 66f 68f
9:00am 2ft 5s 7 9 mph 1016.2mb 66f 67f
8:00am 2ft 5s 11 16 mph 1015.4mb 66f 67f
7:00am 2ft 6s 4 7 mph 1014.9mb 66f 66f
6:00am 2ft 6s 7
mph
1014.2mb 66f 64f
5:00am 2.5ft 5s 7 9 mph 1013.5mb 65f 63f
4:00am 2.5ft 5s 9
mph
1012.9mb 65f 64f
3:00am 2.5ft 5s 9 11 mph 1012.8mb 65f 63f
2:00am 2.5ft 6s 13
mph
1012.6mb 65f 63f
1:00am 2.5ft 6s 9 11 mph 1012.6mb 65f 63f
12:00am 2.5ft 5s 13 16 mph 1012.7mb 65f 64f
Fri 08/26 11:00pm 3ft 6s 13 16 mph 1012.9mb 65f 63f
10:00pm 3ft 6s 16 20 mph 1013.4mb 65f 64f
9:00pm 3ft 6s 18 20 mph 1013.4mb 65f 64f
8:00pm 3.5ft 5s 22 27 mph 1012.9mb 65f 65f
7:00pm 3.5ft 5s 18 22 mph 1013.3mb 65f 66f
6:00pm 3ft 5s 20 27 mph 1013.1mb 65f 67f